Flight Track Log - Related Links

Times and Time Zones

All times are in EDT time to prevent confusion due to time zone crossing. See the JZA8790 flight status page for this flight to view local times or setup timezone preferences in your user account.

Time Position Orientation Groundspeed Altitude Reporting Facility
EDT Latitude Longitude Course Direction KTS MPH feet Rate Location/Type
Fri 02:00:27 PM 45.3000 -75.6333 104° East 110 127 1,800  Level Montreal Center
Fri 02:05:27 PM 45.2500 -75.3500 115° Southeast 170 196 6,000 867 Climbing Montreal Center
Fri 02:06:27 PM 45.2333 -75.3000 110° East 160 184 7,000 900 Climbing Montreal Center
Fri 02:07:27 PM 45.2167 -75.2333 110° East 170 196 7,800 1,050 Climbing Montreal Center
Fri 02:08:27 PM 45.2000 -75.1667 115° Southeast 170 196 9,100 1,100 Climbing Montreal Center
Fri 02:09:27 PM 45.1833 -75.1167 125° Southeast 160 184 10,000 900 Climbing Montreal Center
Fri 02:10:27 PM 45.1500 -75.0500 90° East 170 196 10,900 750 Climbing Montreal Center
Fri 02:11:27 PM 45.1500 -74.9667 74° East 190 219 11,500 750 Climbing Montreal Center
Fri 02:12:27 PM 45.1667 -74.8833 90° East 200 230 12,400 750 Climbing Montreal Center
Fri 02:13:27 PM 45.1667 -74.8000 74° East 210 242 13,000 -50 Climbing Montreal Center
Fri 02:14:27 PM 45.1833 -74.7167 90° East 240 276 12,300 -1,000 Descending Montreal Center
Fri 02:15:27 PM 45.1833 -74.5833 74° East 280 322 11,000 -1,250 Descending Montreal Center
Fri 02:16:27 PM 45.2000 -74.5000 70° East 280 322 9,800 -1,200 Descending Montreal Center
Fri 02:17:27 PM 45.2333 -74.3667 43° Northeast 270 311 8,600 -1,100 Descending Montreal Center
Fri 02:18:27 PM 45.2833 -74.3000 43° Northeast 280 322 7,600 -1,050 Descending Montreal Center
Fri 02:19:27 PM 45.3333 -74.2333 49° Northeast 270 311 6,500 -1,000 Descending Montreal Center
Fri 02:20:27 PM 45.3833 -74.1500 43° Northeast 250 288 5,600 -900 Descending Montreal Center
Fri 02:21:27 PM 45.4333 -74.0833 90° East 240 276 4,700 -1,000 Descending Montreal Center
Fri 02:22:27 PM 45.4333 -74.0167 90° East 230 265 3,600 -1,100 Descending Montreal Center
Fri 02:23:27 PM 45.4333 -73.9333 74° East 210 242 2,500 -1,100 Descending Montreal Center
Fri 02:24:27 PM 45.4500 -73.8500 90° East 180 207 1,400 -900 Descending Montreal Center
Fri 02:25:27 PM 45.4500 -73.8000 90° East 150 173 700 -700 Descending Montreal Center

Login

Don't have an account? Register now (free) for customized features, flight alerts, and more!